Time;durP1;ratioP1;P1;durP2;ratioP2;P2;SDS_P1;SDS_P2;PMS_P1;PMS_P2;Temp;Humidity;BMP_temperature;BMP_pressure;BME280_temperature;BME280_humidity;BME280_pressure;Samples;Min_cycle;Max_cycle;Signal;HPM_P1;HPM_P2
2023/12/31 00:00:00;;;;;;;14.52;7.18;;;;;;;7.24;77.26;99141.75;5082022;28;20024;-82
2023/12/31 00:02:26;;;;;;;18.27;8.38;;;;;;;7.21;77.43;99146.09;5105953;28;20472;-82
2023/12/31 00:04:51;;;;;;;36.70;11.68;;;;;;;7.31;75.63;99114.22;5082630;28;20530;-82
2023/12/31 00:07:16;;;;;;;27.83;9.90;;;;;;;7.31;74.92;99120.50;5084674;28;20123;-83
2023/12/31 00:09:42;;;;;;;25.95;9.15;;;;;;;7.20;74.83;99099.78;5091757;28;20036;-83
2023/12/31 00:12:07;;;;;;;28.25;9.75;;;;;;;7.63;74.98;99168.97;5098943;28;20028;-83
2023/12/31 00:14:33;;;;;;;35.17;10.60;;;;;;;7.49;75.70;99158.84;5093557;28;20034;-83
2023/12/31 00:16:58;;;;;;;12.70;7.45;;;;;;;6.75;76.23;99039.25;5083703;28;20032;-80
2023/12/31 00:19:24;;;;;;;10.85;6.72;;;;;;;7.22;76.63;99100.97;5091337;28;20551;-81
2023/12/31 00:21:49;;;;;;;12.45;7.45;;;;;;;7.20;77.74;99111.56;5097999;28;20052;-84
2023/12/31 00:24:15;;;;;;;13.43;7.70;;;;;;;7.39;78.31;99154.22;5089553;28;20032;-81
2023/12/31 00:26:40;;;;;;;14.70;8.48;;;;;;;6.84;78.61;99091.00;5087691;28;20518;-84
2023/12/31 00:29:05;;;;;;;13.80;7.75;;;;;;;6.56;79.11;99071.97;5093934;28;20028;-84
2023/12/31 00:31:31;;;;;;;13.10;7.63;;;;;;;6.66;79.87;99098.56;5094455;28;20028;-85
2023/12/31 00:33:57;;;;;;;18.02;8.43;;;;;;;7.02;80.56;99163.09;5112216;28;20930;-83
2023/12/31 00:36:25;;;;;;;28.17;10.57;;;;;;;6.64;80.80;99115.44;5086969;28;20054;-81
2023/12/31 00:38:52;;;;;;;27.27;9.95;;;;;;;6.76;80.97;99131.44;5093236;28;20039;-85
2023/12/31 00:41:18;;;;;;;28.80;10.93;;;;;;;6.74;81.83;99144.81;5098308;28;20031;-82
2023/12/31 00:43:43;;;;;;;44.03;14.35;;;;;;;6.94;82.20;99178.03;5089730;28;20024;-81
2023/12/31 00:46:11;;;;;;;31.63;11.27;;;;;;;6.34;82.73;99102.22;5105954;28;20552;-84
2023/12/31 00:48:37;;;;;;;;;;;;;;;6.84;83.13;99184.38;5094980;28;20536;-83
2023/12/31 00:51:02;;;;;;;16.73;7.50;;;;;;;6.61;83.50;99153.88;5083548;28;20022;-82
2023/12/31 00:53:28;;;;;;;13.20;7.40;;;;;;;6.26;83.34;99097.97;5097845;28;20031;-82
2023/12/31 00:55:53;;;;;;;13.93;8.10;;;;;;;6.36;83.25;99124.56;5087725;28;20091;-83
2023/12/31 00:58:19;;;;;;;13.82;7.85;;;;;;;6.76;84.95;99185.59;5107722;28;20023;-82
2023/12/31 01:00:44;;;;;;;16.25;7.65;;;;;;;5.76;84.72;99020.53;5082561;28;20400;-85
2023/12/31 01:03:10;;;;;;;13.50;6.95;;;;;;;6.00;84.83;99063.56;5090895;28;20028;-82
2023/12/31 01:05:35;;;;;;;9.00;6.15;;;;;;;6.42;85.03;99142.19;5087773;28;20176;-83
2023/12/31 01:08:01;;;;;;;9.70;5.63;;;;;;;6.78;84.69;99159.31;5075053;28;20101;-82
2023/12/31 01:10:27;;;;;;;9.75;6.05;;;;;;;5.56;84.29;98986.50;5093648;28;20070;-83
2023/12/31 01:12:52;;;;;;;11.05;5.63;;;;;;;6.72;84.03;99149.13;5094938;28;20110;-82
2023/12/31 01:15:18;;;;;;;8.45;5.53;;;;;;;6.27;84.21;99096.75;5091024;28;20031;-83
2023/12/31 01:17:43;;;;;;;10.32;5.68;;;;;;;6.56;84.71;99124.91;5090029;28;20449;-82
2023/12/31 01:20:09;;;;;;;9.57;5.28;;;;;;;6.19;85.10;99075.25;5083375;28;20457;-83
2023/12/31 01:22:35;;;;;;;9.77;6.38;;;;;;;6.59;85.32;99134.28;5090631;28;20055;-83
2023/12/31 01:25:00;;;;;;;8.98;6.18;;;;;;;6.77;85.75;99159.69;5092978;28;20027;-82
2023/12/31 01:27:26;;;;;;;10.27;5.93;;;;;;;6.62;85.72;99148.00;5077969;28;20515;-83
2023/12/31 01:29:51;;;;;;;10.23;6.28;;;;;;;6.57;85.07;99140.16;5094660;28;20023;-85
2023/12/31 01:32:17;;;;;;;8.77;5.78;;;;;;;6.18;84.37;99040.75;5088113;28;20023;-83
2023/12/31 01:34:42;;;;;;;9.98;5.10;;;;;;;6.75;84.01;99113.41;5105724;28;21374;-82
2023/12/31 01:37:07;;;;;;;8.93;5.63;;;;;;;7.09;83.07;99154.03;5095753;28;20028;-83
2023/12/31 01:39:33;;;;;;;8.43;5.43;;;;;;;6.35;83.25;99059.88;5083032;28;20041;-81
2023/12/31 01:41:58;;;;;;;10.23;5.50;;;;;;;6.80;83.88;99134.97;5086926;28;20415;-83
2023/12/31 01:44:24;;;;;;;11.98;5.70;;;;;;;6.73;84.03;99107.56;5083909;28;20024;-84
2023/12/31 01:46:49;;;;;;;8.27;5.38;;;;;;;6.80;83.19;99124.00;5110611;28;20032;-82
2023/12/31 01:49:15;;;;;;;10.02;5.72;;;;;;;6.52;82.80;99070.00;5095593;28;20020;-82
2023/12/31 01:51:41;;;;;;;11.05;5.35;;;;;;;6.73;82.87;99095.78;5083002;28;20066;-82
2023/12/31 01:54:06;;;;;;;9.02;5.57;;;;;;;6.86;83.08;99121.59;5088878;28;20038;-87
2023/12/31 01:56:36;;;;;;;9.15;6.00;;;;;;;6.81;83.09;99119.28;5079971;28;20031;-82
2023/12/31 01:59:03;;;;;;;10.98;6.05;;;;;;;5.86;83.13;98981.31;5089197;28;20024;-81
2023/12/31 02:01:30;;;;;;;9.00;5.72;;;;;;;6.62;81.39;99111.53;5099946;28;20027;-83
2023/12/31 02:03:56;;;;;;;9.43;4.97;;;;;;;6.42;82.98;99122.19;5113930;28;20040;-84
2023/12/31 02:06:21;;;;;;;9.65;5.72;;;;;;;6.63;85.02;99148.78;5113553;28;20084;-84
2023/12/31 02:08:47;;;;;;;10.07;6.50;;;;;;;6.49;84.59;99133.94;5112339;28;20032;-82
2023/12/31 02:11:13;;;;;;;8.32;5.50;;;;;;;5.96;84.05;99064.75;5084185;28;20503;-82
2023/12/31 02:13:39;;;;;;;12.10;6.75;;;;;;;6.46;84.49;99142.97;5093142;28;20023;-83
2023/12/31 02:16:12;;;;;;;13.88;7.88;;;;;;;5.99;84.74;99064.72;5102391;28;20034;-84
2023/12/31 02:18:37;;;;;;;16.33;7.50;;;;;;;6.20;85.33;99117.97;5094361;28;20032;-83
2023/12/31 02:21:04;;;;;;;12.70;6.45;;;;;;;6.11;85.07;99123.88;5088387;28;20049;-84
2023/12/31 02:23:30;;;;;;;12.75;5.97;;;;;;;6.07;85.20;99128.59;5090165;28;20044;-83
2023/12/31 02:26:10;;;;;;;14.00;7.00;;;;;;;6.09;86.45;99123.47;5094486;28;20028;-82
2023/12/31 02:28:36;;;;;;;14.73;7.35;;;;;;;6.29;86.99;99154.00;5074441;28;20051;-85
2023/12/31 02:31:05;;;;;;;12.52;7.43;;;;;;;6.34;87.17;99154.38;5088040;28;20437;-83
2023/12/31 02:33:32;;;;;;;11.85;6.88;;;;;;;6.12;86.14;99118.00;5091017;28;20119;-86
2023/12/31 02:35:57;;;;;;;13.30;7.22;;;;;;;6.08;86.75;99124.66;5088384;28;20032;-82
2023/12/31 02:38:22;;;;;;;12.02;6.45;;;;;;;5.68;86.70;99071.84;5079727;28;20077;-82
2023/12/31 02:40:48;;;;;;;12.10;7.22;;;;;;;5.46;87.51;99055.81;5094941;28;20053;-85
2023/12/31 02:43:13;;;;;;;12.75;7.20;;;;;;;5.74;87.40;99094.94;5075588;28;20511;-82
2023/12/31 02:45:39;;;;;;;12.88;8.07;;;;;;;5.87;88.25;99136.47;5080801;28;20128;-82
2023/12/31 02:48:05;;;;;;;17.80;8.15;;;;;;;5.66;88.40;99100.84;5090637;28;20031;-82
2023/12/31 02:50:31;;;;;;;12.70;7.50;;;;;;;5.66;89.02;99112.56;5092677;28;20028;-83
2023/12/31 02:52:56;;;;;;;12.88;6.55;;;;;;;5.87;89.16;99132.91;5084291;28;20024;-82
2023/12/31 02:55:22;;;;;;;10.73;6.70;;;;;;;5.84;88.54;99112.56;5094202;28;20024;-83
2023/12/31 02:57:47;;;;;;;10.77;6.07;;;;;;;6.06;87.89;99130.53;5091573;28;20050;-85
2023/12/31 03:00:13;;;;;;;10.02;6.32;;;;;;;5.69;87.50;99076.13;5091285;28;20069;-81
2023/12/31 03:02:40;;;;;;;12.95;6.85;;;;;;;5.57;87.67;99062.84;5088134;28;20424;-82
2023/12/31 03:05:07;;;;;;;9.37;5.57;;;;;;;6.31;86.50;99157.91;5093205;28;20038;-82
2023/12/31 03:07:33;;;;;;;12.67;7.07;;;;;;;6.14;86.19;99109.38;5093593;28;20028;-83
2023/12/31 03:09:59;;;;;;;11.00;5.88;;;;;;;6.25;86.12;99134.03;5087600;28;20012;-86
2023/12/31 03:12:24;;;;;;;9.63;6.18;;;;;;;6.28;86.72;99128.50;5084714;28;20100;-85
2023/12/31 03:14:50;;;;;;;13.07;8.02;;;;;;;5.91;86.42;99076.09;5086751;28;20118;-85
2023/12/31 03:17:15;;;;;;;10.43;5.85;;;;;;;6.09;87.32;99107.78;5081368;28;20024;-84
2023/12/31 03:19:40;;;;;;;10.43;6.22;;;;;;;6.19;87.89;99128.16;5088191;28;20031;-83
2023/12/31 03:22:06;;;;;;;8.60;5.50;;;;;;;6.16;87.31;99114.44;5088554;28;20524;-82
2023/12/31 03:24:31;;;;;;;12.30;5.82;;;;;;;6.33;87.25;99128.09;5078785;28;20174;-82
2023/12/31 03:26:57;;;;;;;8.77;5.70;;;;;;;6.27;86.12;99132.44;5086377;28;20059;-82
2023/12/31 03:29:22;;;;;;;12.38;6.45;;;;;;;6.51;86.32;99166.47;5093382;28;20027;-81
2023/12/31 03:31:48;;;;;;;10.88;7.13;;;;;;;6.26;86.53;99125.41;5083973;28;20029;-84
2023/12/31 03:34:13;;;;;;;12.50;6.30;;;;;;;6.13;86.49;99105.06;5085091;28;20050;-84
2023/12/31 03:36:39;;;;;;;10.95;5.50;;;;;;;6.27;86.27;99140.66;5098145;28;20023;-82
2023/12/31 03:39:04;;;;;;;8.60;5.38;;;;;;;6.02;86.57;99082.38;5099750;28;20055;-81
2023/12/31 03:41:29;;;;;;;7.82;4.93;;;;;;;6.14;86.37;99101.16;5085249;28;20028;-81
2023/12/31 03:43:55;;;;;;;9.02;5.60;;;;;;;6.23;86.81;99126.19;5077283;28;20033;-81
2023/12/31 03:46:21;;;;;;;8.43;5.32;;;;;;;6.42;86.06;99122.97;5092632;28;20040;-81
2023/12/31 03:48:47;;;;;;;7.22;4.75;;;;;;;6.28;85.72;99092.84;5092415;28;20468;-82
2023/12/31 03:51:12;;;;;;;9.82;5.60;;;;;;;6.32;86.02;99104.59;5080867;28;20028;-83
2023/12/31 03:53:38;;;;;;;11.07;5.20;;;;;;;6.27;85.99;99098.75;5092709;28;20110;-82
2023/12/31 03:56:03;;;;;;;10.93;5.88;;;;;;;6.41;85.73;99123.38;5076515;28;20120;-82
2023/12/31 03:58:29;;;;;;;10.82;5.78;;;;;;;6.35;86.60;99130.44;5086117;28;20036;-81
2023/12/31 04:00:54;;;;;;;12.00;6.80;;;;;;;6.14;86.38;99114.84;5098806;28;20024;-82
2023/12/31 04:03:20;;;;;;;9.63;5.72;;;;;;;5.73;84.15;99073.38;5092524;28;20039;-82
2023/12/31 04:05:45;;;;;;;9.93;5.63;;;;;;;5.86;85.38;99142.28;5089672;28;20495;-81
2023/12/31 04:08:10;;;;;;;15.50;7.35;;;;;;;5.77;87.42;99150.16;5097898;28;20088;-82
2023/12/31 04:10:36;;;;;;;58.60;17.67;;;;;;;5.83;88.28;99154.06;5092952;28;20053;-81
2023/12/31 04:13:02;;;;;;;32.30;11.80;;;;;;;5.60;88.08;99124.31;5081487;28;20472;-83
2023/12/31 04:15:27;;;;;;;37.80;16.00;;;;;;;5.42;88.99;99113.38;5092706;28;20028;-82
2023/12/31 04:17:54;;;;;;;45.97;17.58;;;;;;;4.83;89.49;99033.50;5089189;28;20380;-84
2023/12/31 04:20:19;;;;;;;15.55;7.57;;;;;;;5.55;90.29;99147.41;5092404;28;20028;-82
2023/12/31 04:22:44;;;;;;;14.88;6.57;;;;;;;5.03;90.35;99071.47;5112594;28;20038;-83
2023/12/31 04:25:10;;;;;;;16.75;7.13;;;;;;;5.51;89.78;99165.03;5078502;28;20024;-82
2023/12/31 04:27:38;;;;;;;13.23;7.25;;;;;;;5.31;90.55;99140.75;5094825;28;20034;-82
2023/12/31 04:30:05;;;;;;;21.58;9.52;;;;;;;5.17;91.58;99135.28;5100110;28;20483;-83
2023/12/31 04:32:31;;;;;;;44.03;18.30;;;;;;;5.04;93.21;99114.13;5100257;28;20027;-82
2023/12/31 04:34:56;;;;;;;42.53;16.23;;;;;;;4.93;93.77;99099.63;5097340;28;20127;-83
2023/12/31 04:37:21;;;;;;;33.83;14.13;;;;;;;5.20;94.31;99128.22;5100642;28;20028;-83
2023/12/31 04:39:47;;;;;;;51.40;20.02;;;;;;;4.91;93.09;99103.53;5096287;28;20122;-82
2023/12/31 04:42:12;;;;;;;20.90;8.70;;;;;;;4.78;93.07;99120.72;5097292;28;20028;-81
2023/12/31 04:44:37;;;;;;;17.20;7.75;;;;;;;4.91;94.12;99154.78;5080315;28;20498;-82
2023/12/31 04:47:03;;;;;;;18.48;7.43;;;;;;;4.32;93.62;99060.38;5081839;28;20028;-82
2023/12/31 04:49:28;;;;;;;13.85;7.40;;;;;;;4.95;94.13;99135.59;5092677;28;20031;-83
2023/12/31 04:51:54;;;;;;;12.65;6.38;;;;;;;5.12;94.51;99148.56;5093820;28;20048;-81
2023/12/31 04:54:19;;;;;;;11.73;5.97;;;;;;;5.36;94.48;99164.25;5081557;28;20032;-82
2023/12/31 04:56:45;;;;;;;9.57;4.95;;;;;;;5.21;92.74;99151.69;5095184;28;20028;-82
2023/12/31 04:59:10;;;;;;;13.48;6.43;;;;;;;5.16;92.95;99166.56;5087265;28;20411;-82
2023/12/31 05:01:35;;;;;;;15.40;6.32;;;;;;;4.90;93.42;99155.94;5094862;28;20037;-84
2023/12/31 05:04:01;;;;;;;12.10;5.82;;;;;;;5.13;94.45;99188.47;5107913;28;20160;-82
2023/12/31 05:06:27;;;;;;;11.30;7.18;;;;;;;4.83;95.24;99153.19;5112564;28;20479;-82
2023/12/31 05:08:52;;;;;;;12.43;6.72;;;;;;;4.74;95.38;99131.66;5074901;28;20016;-82
2023/12/31 05:11:18;;;;;;;13.18;6.78;;;;;;;5.19;95.99;99186.91;5087798;28;20035;-83
2023/12/31 05:13:44;;;;;;;15.25;5.80;;;;;;;4.85;96.36;99137.94;5109529;28;20032;-82
2023/12/31 05:16:14;;;;;;;9.90;5.93;;;;;;;4.85;96.50;99135.22;5097998;28;20059;-83
2023/12/31 05:18:46;;;;;;;10.95;6.15;;;;;;;4.43;96.69;99070.19;5080475;28;20030;-83
2023/12/31 05:21:12;;;;;;;11.40;5.45;;;;;;;5.11;97.42;99179.88;5089800;28;20060;-81
2023/12/31 05:23:37;;;;;;;10.02;5.63;;;;;;;4.81;97.60;99152.81;5071324;28;20031;-84
2023/12/31 05:26:03;;;;;;;12.05;5.78;;;;;;;4.83;97.48;99142.22;5086334;28;20028;-84
2023/12/31 05:28:29;;;;;;;15.88;7.28;;;;;;;5.11;97.52;99196.28;5083500;28;20051;-82
2023/12/31 05:30:54;;;;;;;20.08;9.75;;;;;;;4.82;97.16;99140.69;5085212;28;20186;-82
2023/12/31 05:33:20;;;;;;;46.03;15.73;;;;;;;5.11;97.33;99175.16;5078000;28;20024;-82
2023/12/31 05:35:45;;;;;;;37.00;14.70;;;;;;;4.91;97.76;99147.34;5091277;28;20046;-82
2023/12/31 05:38:10;;;;;;;53.42;18.27;;;;;;;4.64;97.02;99110.50;5085864;28;20400;-82
2023/12/31 05:40:36;;;;;;;11.43;6.55;;;;;;;5.23;97.14;99183.03;5075977;28;20056;-82
2023/12/31 05:43:01;;;;;;;13.90;6.60;;;;;;;5.04;97.77;99164.19;5086873;28;20036;-81
2023/12/31 05:45:27;;;;;;;11.95;6.13;;;;;;;4.32;99.32;99063.13;5092863;28;20496;-81
2023/12/31 05:47:52;;;;;;;13.18;7.93;;;;;;;4.66;100.00;99123.81;5087882;28;20028;-82
2023/12/31 05:50:18;;;;;;;20.52;9.40;;;;;;;4.23;100.00;99054.47;5075925;28;20058;-80
2023/12/31 05:52:44;;;;;;;26.20;11.25;;;;;;;4.68;100.00;99121.47;5086098;28;20097;-82
2023/12/31 05:55:09;;;;;;;25.38;11.05;;;;;;;4.57;100.00;99096.81;5089602;28;20484;-82
2023/12/31 05:57:35;;;;;;;19.65;10.75;;;;;;;5.10;100.00;99165.38;5094612;28;20102;-82
2023/12/31 06:00:05;;;;;;;28.38;9.40;;;;;;;4.66;100.00;99072.59;5093833;28;20024;-83
2023/12/31 06:02:30;;;;;;;15.30;8.07;;;;;;;4.97;99.19;99105.88;5074771;28;20028;-81
2023/12/31 06:04:56;;;;;;;15.65;7.40;;;;;;;5.45;98.20;99172.88;5087171;28;20042;-83
2023/12/31 06:07:21;;;;;;;9.30;5.18;;;;;;;5.40;96.78;99154.06;5089740;28;20595;-81
2023/12/31 06:09:47;;;;;;;11.52;5.88;;;;;;;5.41;96.92;99155.66;5092897;28;20042;-82
2023/12/31 06:12:12;;;;;;;9.65;5.53;;;;;;;5.23;96.12;99117.28;5087787;28;20143;-83
2023/12/31 06:14:37;;;;;;;10.13;5.10;;;;;;;4.96;95.64;99093.38;5088728;28;20568;-82
2023/12/31 06:17:03;;;;;;;9.73;5.25;;;;;;;5.45;96.63;99183.03;5085377;28;20021;-82
2023/12/31 06:19:28;;;;;;;9.55;5.35;;;;;;;5.34;97.10;99172.06;5079267;28;20063;-82
2023/12/31 06:21:54;;;;;;;12.25;6.13;;;;;;;5.51;97.64;99189.69;5087105;28;20045;-82
2023/12/31 06:24:19;;;;;;;13.38;6.43;;;;;;;5.22;97.49;99136.84;5082849;28;20138;-82
2023/12/31 06:26:44;;;;;;;21.73;10.40;;;;;;;4.99;98.13;99106.28;5094032;28;20105;-82
2023/12/31 06:29:10;;;;;;;26.00;11.98;;;;;;;5.33;97.82;99148.59;5093501;28;20016;-84
2023/12/31 06:31:35;;;;;;;33.08;14.00;;;;;;;5.68;98.44;99192.44;5094521;28;20024;-82
2023/12/31 06:34:01;;;;;;;16.52;7.18;;;;;;;5.98;99.04;99222.25;5092509;28;20084;-82
2023/12/31 06:36:26;;;;;;;14.05;8.93;;;;;;;5.83;97.88;99181.50;5081403;28;20032;-82
2023/12/31 06:38:52;;;;;;;8.23;5.57;;;;;;;6.24;97.37;99217.50;5094289;28;20125;-82
2023/12/31 06:41:21;;;;;;;10.63;5.43;;;;;;;6.52;96.17;99234.69;5078129;28;20024;-82
2023/12/31 06:43:47;;;;;;;11.07;5.07;;;;;;;6.61;94.66;99252.72;5087360;28;20123;-81
2023/12/31 06:46:14;;;;;;;9.18;5.63;;;;;;;5.79;95.55;99136.84;5082515;28;20035;-81
2023/12/31 06:48:39;;;;;;;10.45;5.88;;;;;;;6.26;95.48;99194.00;5093558;28;20028;-82
2023/12/31 06:51:05;;;;;;;9.15;5.30;;;;;;;6.65;94.88;99226.81;5091316;28;20020;-82
2023/12/31 06:53:33;;;;;;;10.38;5.72;;;;;;;6.74;94.15;99235.44;5080564;28;20492;-81
2023/12/31 06:56:06;;;;;;;9.95;5.43;;;;;;;6.90;93.28;99227.50;5091594;28;20042;-82
2023/12/31 06:58:33;;;;;;;7.53;4.97;;;;;;;6.36;92.98;99137.50;5084903;28;20032;-81
2023/12/31 07:00:58;;;;;;;7.93;5.18;;;;;;;7.07;91.12;99209.38;5086620;28;20028;-82
2023/12/31 07:03:24;;;;;;;8.70;5.40;;;;;;;7.27;89.16;99224.19;5088041;28;20077;-82
2023/12/31 07:05:50;;;;;;;11.23;5.78;;;;;;;7.09;87.51;99184.25;5091297;28;20028;-82
2023/12/31 07:08:15;;;;;;;9.32;5.35;;;;;;;7.50;87.04;99231.91;5093754;28;20107;-82
2023/12/31 07:10:41;;;;;;;10.05;5.55;;;;;;;7.26;84.82;99197.88;5091995;28;20039;-82
2023/12/31 07:13:06;;;;;;;10.15;6.15;;;;;;;7.44;84.31;99221.72;5092640;28;20024;-81
2023/12/31 07:15:34;;;;;;;9.80;5.93;;;;;;;6.81;82.99;99122.03;5092773;28;20541;-82
2023/12/31 07:17:59;;;;;;;10.18;6.53;;;;;;;7.33;85.97;99233.59;5094361;28;20032;-83
2023/12/31 07:20:24;;;;;;;9.82;5.55;;;;;;;7.16;85.18;99212.47;5088974;28;20517;-82
2023/12/31 07:22:50;;;;;;;11.57;7.00;;;;;;;7.27;84.53;99220.66;5092915;28;20028;-82
2023/12/31 07:25:15;;;;;;;11.50;7.05;;;;;;;7.27;85.11;99240.69;5094787;28;20031;-82
2023/12/31 07:27:41;;;;;;;11.48;7.13;;;;;;;7.04;85.35;99206.66;5094532;27;20921;-82
2023/12/31 07:30:06;;;;;;;12.50;6.38;;;;;;;7.07;85.46;99216.84;5101190;28;20038;-82
2023/12/31 07:32:32;;;;;;;9.25;6.53;;;;;;;7.12;85.98;99222.69;5103027;28;20027;-81
2023/12/31 07:34:57;;;;;;;11.82;6.43;;;;;;;6.62;86.26;99150.75;5100861;28;20031;-83
2023/12/31 07:37:23;;;;;;;;;;;;;;;7.30;85.96;99250.88;5108337;28;20024;-82
2023/12/31 07:39:48;;;;;;;;;;;;;;;7.30;86.98;99236.34;5088989;28;20383;-82
2023/12/31 07:42:14;;;;;;;;;;;;;;;7.33;87.37;99244.59;5085030;28;20334;-82
2023/12/31 07:44:39;;;;;;;;;;;;;;;7.36;87.50;99240.22;5102908;28;20375;-82
2023/12/31 07:47:04;;;;;;;;;;;;;;;7.39;88.60;99249.66;5094663;28;19975;-82
2023/12/31 07:49:30;;;;;;;;;;;;;;;7.45;88.23;99248.03;5095721;28;19921;-85
2023/12/31 07:51:55;;;;;;;;;;;;;;;7.55;86.75;99250.72;5089997;28;19915;-82
2023/12/31 07:54:21;;;;;;;;;;;;;;;7.66;86.05;99251.44;5097533;28;19919;-82
2023/12/31 07:56:46;;;;;;;;;;;;;;;7.74;85.69;99261.22;5093885;28;19915;-81
2023/12/31 07:59:11;;;;;;;;;;;;;;;7.79;84.53;99265.50;5113123;28;20306;-82
2023/12/31 08:01:36;;;;;;;;;;;;;;;7.85;84.34;99258.38;5110964;28;19920;-80
2023/12/31 08:04:02;;;;;;;;;;;;;;;7.94;84.34;99257.94;5095793;28;19912;-82
2023/12/31 08:06:27;;;;;;;;;;;;;;;7.96;84.89;99259.06;5084389;28;19919;-82
2023/12/31 08:08:53;;;;;;;;;;;;;;;8.07;85.17;99265.28;5080148;28;20397;-82
2023/12/31 08:11:20;;;;;;;;;;;;;;;8.24;85.02;99268.28;5100599;28;20288;-82
2023/12/31 08:13:45;;;;;;;;;;;;;;;8.38;83.88;99273.72;5089490;28;19961;-81
2023/12/31 08:16:11;;;;;;;;;;;;;;;8.64;82.73;99269.50;5095663;28;19916;-83
2023/12/31 08:18:36;;;;;;;;;;;;;;;8.88;80.73;99265.69;5096618;28;19916;-83
2023/12/31 08:21:01;;;;;;;;;;;;;;;9.12;78.79;99272.88;5097557;28;20303;-83
2023/12/31 08:23:29;;;;;;;;;;;;;;;9.31;77.51;99280.53;5090873;28;19919;-83
2023/12/31 08:25:54;;;;;;;;;;;;;;;9.45;74.96;99276.03;5095195;28;20343;-82
2023/12/31 08:28:20;;;;;;;;;;;;;;;9.56;74.46;99276.66;5094556;28;20461;-81
2023/12/31 08:30:45;;;;;;;;;;;;;;;9.73;74.49;99270.88;5092261;28;19916;-82
2023/12/31 08:33:10;;;;;;;;;;;;;;;9.84;73.67;99272.69;5096021;28;19947;-82
2023/12/31 08:35:36;;;;;;;;;;;;;;;9.94;71.84;99274.53;5083277;28;19916;-82
2023/12/31 08:38:01;;;;;;;;;;;;;;;10.00;70.99;99261.81;5090324;28;19958;-82
2023/12/31 08:40:27;;;;;;;;;;;;;;;10.19;69.67;99266.63;5086747;28;20068;-82
2023/12/31 08:42:52;;;;;;;;;;;;;;;10.31;69.91;99268.78;5095229;28;19916;-81
2023/12/31 08:45:17;;;;;;;;;;;;;;;10.36;69.32;99262.81;5099190;28;19927;-83
2023/12/31 08:47:42;;;;;;;;;;;;;;;10.40;66.94;99265.50;5112009;28;20006;-80
2023/12/31 08:50:09;;;;;;;;;;;;;;;10.42;67.07;99258.38;5087890;28;19912;-80
2023/12/31 08:52:43;;;;;;;;;;;;;;;10.48;66.82;99262.19;5094641;28;20626;-81
2023/12/31 08:55:08;;;;;;;;;;;;;;;10.59;67.91;99254.50;5094109;28;19918;-80
2023/12/31 08:57:33;;;;;;;;;;;;;;;10.75;66.25;99264.06;5098371;28;19915;-81
2023/12/31 08:59:59;;;;;;;;;;;;;;;10.90;65.68;99255.09;5088304;28;19916;-80
2023/12/31 09:02:24;;;;;;;;;;;;;;;11.01;64.27;99252.09;5080971;28;19916;-82
2023/12/31 09:04:49;;;;;;;;;;;;;;;11.08;64.29;99240.91;5091373;28;19924;-80
2023/12/31 09:07:15;;;;;;;;;;;;;;;11.07;62.73;99238.56;5095032;28;19915;-79
2023/12/31 09:09:41;;;;;;;;;;;;;;;11.06;64.19;99243.31;5112072;28;20294;-84
2023/12/31 09:12:06;;;;;;;;;;;;;;;11.02;63.28;99239.84;5110058;28;20023;-80
2023/12/31 09:14:32;;;;;;;;;;;;;;;10.99;63.76;99233.16;5097943;28;20395;-80
2023/12/31 09:16:57;;;;;;;;;;;;;;;11.10;62.82;99235.72;5089489;28;19912;-82
2023/12/31 09:19:22;;;;;;;;;;;;;;;11.03;62.53;99230.31;5093387;28;19915;-81
2023/12/31 09:21:48;;;;;;;;;;;;;;;10.81;63.61;99226.44;5090109;28;20032;-81
2023/12/31 09:24:15;;;;;;;;;;;;;;;10.81;63.63;99226.44;5095027;28;20204;-81
2023/12/31 09:26:40;;;;;;;;;;;;;;;10.96;64.59;99220.22;5100218;28;19931;-81
2023/12/31 09:29:06;;;;;;;;;;;;;;;10.95;64.41;99224.19;5083071;28;20323;-82
2023/12/31 09:31:31;;;;;;;;;;;;;;;11.00;65.06;99218.16;5109717;28;19920;-83
2023/12/31 09:33:56;;;;;;;;;;;;;;;11.02;64.91;99215.75;5094040;28;20376;-81
2023/12/31 09:36:21;;;;;;;;;;;;;;;10.92;64.40;99221.47;5098012;28;19978;-81
2023/12/31 09:38:50;;;;;;;;;;;;;;;10.97;64.33;99212.69;5092612;28;19920;-81
2023/12/31 09:41:17;;;;;;;;;;;;;;;10.78;64.86;99219.00;5112518;28;19997;-82
2023/12/31 09:43:43;;;;;;;;;;;;;;;10.77;64.54;99211.91;5092150;28;19926;-80
2023/12/31 09:46:09;;;;;;;;;;;;;;;10.76;66.74;99205.59;5095889;28;20357;-81
2023/12/31 09:48:35;;;;;;;;;;;;;;;10.73;66.70;99208.47;5094375;28;19931;-80
2023/12/31 09:51:01;;;;;;;28.92;15.35;;;;;;;10.35;67.76;99156.28;5078840;28;20828;-82
2023/12/31 09:53:27;;;;;;;99.30;36.67;;;;;;;10.52;66.70;99190.28;5110588;28;20051;-80
2023/12/31 09:55:56;;;;;;;106.00;39.30;;;;;;;10.48;67.07;99179.31;5089454;28;20028;-81
2023/12/31 09:58:23;;;;;;;78.35;32.13;;;;;;;10.38;66.93;99163.72;5086133;28;20071;-83
2023/12/31 10:00:49;;;;;;;22.70;13.97;;;;;;;10.30;67.26;99172.56;5095972;28;20412;-81
2023/12/31 10:03:15;;;;;;;31.17;18.63;;;;;;;10.39;68.29;99175.53;5087313;28;20061;-80
2023/12/31 10:05:42;;;;;;;33.10;18.38;;;;;;;10.47;68.35;99169.47;5097713;28;20543;-82
2023/12/31 10:08:09;;;;;;;22.77;13.83;;;;;;;9.74;68.52;99062.75;5093170;28;20027;-82
2023/12/31 10:10:38;;;;;;;24.02;14.48;;;;;;;10.33;70.38;99175.25;5092794;28;20035;-81
2023/12/31 10:13:04;;;;;;;24.75;13.82;;;;;;;10.08;70.28;99122.44;5111342;28;20020;-84
2023/12/31 10:15:29;;;;;;;20.98;12.75;;;;;;;10.26;67.96;99158.03;5099220;28;20020;-80
2023/12/31 10:17:55;;;;;;;19.95;12.00;;;;;;;9.74;68.95;99108.88;5091794;28;20024;-80
2023/12/31 10:20:21;;;;;;;22.48;13.48;;;;;;;9.99;67.88;99142.34;5099009;28;20433;-81
2023/12/31 10:22:47;;;;;;;21.20;12.23;;;;;;;10.37;67.72;99173.19;5075135;28;20123;-79
2023/12/31 10:25:15;;;;;;;21.50;11.98;;;;;;;10.48;68.06;99164.72;5093309;28;20027;-80
2023/12/31 10:27:48;;;;;;;62.00;33.00;;;;;;;10.14;69.54;99110.50;5094872;28;20027;-79
2023/12/31 10:30:14;;;;;;;21.77;14.18;;;;;;;10.22;69.12;99089.06;5096090;28;20023;-80
2023/12/31 10:32:39;;;;;;;23.60;13.38;;;;;;;10.62;68.60;99153.38;5090293;28;20502;-81
2023/12/31 10:35:06;;;;;;;24.55;14.40;;;;;;;10.86;68.56;99157.63;5075443;28;20024;-80
2023/12/31 10:37:31;;;;;;;22.88;13.07;;;;;;;10.68;67.91;99146.16;5090906;28;20498;-80
2023/12/31 10:39:57;;;;;;;25.08;13.88;;;;;;;10.89;68.57;99162.31;5087192;28;20093;-80
2023/12/31 10:42:23;;;;;;;31.77;16.00;;;;;;;11.07;67.73;99147.31;5077209;28;20032;-81
2023/12/31 10:44:53;;;;;;;19.63;12.95;;;;;;;10.87;65.47;99105.88;5095414;28;20058;-80
2023/12/31 10:47:22;;;;;;;22.05;13.40;;;;;;;9.20;64.98;98849.03;5096264;28;20028;-80
2023/12/31 10:49:49;;;;;;;18.15;11.07;;;;;;;11.08;66.91;99101.88;5087074;28;20519;-80
2023/12/31 10:52:15;;;;;;;20.97;12.10;;;;;;;11.27;68.24;99140.50;5111065;28;20028;-80
2023/12/31 10:54:53;;;;;;;22.98;13.63;;;;;;;10.97;67.97;99100.09;5090670;28;20026;-81
2023/12/31 10:57:21;;;;;;;23.00;12.90;;;;;;;10.69;66.40;99052.97;5094682;28;20036;-81
2023/12/31 10:59:48;;;;;;;29.45;16.60;;;;;;;11.16;65.88;99123.38;5096614;28;20035;-80
2023/12/31 11:02:16;;;;;;;26.23;16.20;;;;;;;11.06;65.27;99085.69;5096221;28;20039;-81
2023/12/31 11:04:43;;;;;;;;;;;;;;;11.13;65.52;99113.19;5096621;28;20028;-80
2023/12/31 11:07:08;;;;;;;36.50;17.73;;;;;;;10.87;65.54;99067.97;5096497;28;19961;-80
2023/12/31 11:09:34;;;;;;;101.22;44.90;;;;;;;10.31;64.81;98978.06;5102497;28;20032;-81
2023/12/31 11:12:00;;;;;;;108.20;50.53;;;;;;;10.85;66.36;99075.13;5081669;28;20077;-81
2023/12/31 11:14:31;;;;;;;48.42;26.38;;;;;;;10.94;66.10;99059.50;5101984;28;20024;-82
2023/12/31 11:17:02;;;;;;;36.88;21.08;;;;;;;11.19;65.10;99100.41;5094282;28;20016;-82
2023/12/31 11:19:49;;;;;;;33.45;19.90;;;;;;;11.12;65.76;99095.03;5076131;28;20444;-82
2023/12/31 11:22:38;;;;;;;45.53;23.92;;;;;;;11.08;66.03;99093.56;5096161;28;20187;-82
2023/12/31 11:25:06;;;;;;;45.88;25.25;;;;;;;10.91;66.59;99067.91;5076457;28;20085;-82
2023/12/31 11:27:32;;;;;;;;;;;;;;;11.19;66.57;99094.88;5076653;28;20024;-80
2023/12/31 11:29:58;;;;;;;45.53;25.90;;;;;;;10.77;68.45;99068.19;5076319;28;20007;-82
2023/12/31 11:32:25;;;;;;;43.20;25.50;;;;;;;10.47;68.60;99006.50;5088964;28;20028;-80
2023/12/31 11:34:54;;;;;;;48.90;26.17;;;;;;;11.25;67.76;99084.84;5089193;28;20032;-81
2023/12/31 11:37:21;;;;;;;54.95;28.65;;;;;;;10.87;67.49;99032.03;5076381;28;20043;-81
2023/12/31 11:39:47;;;;;;;58.88;29.98;;;;;;;11.02;67.48;99044.31;5088870;28;20028;-82